Otego, New York
Current Conditions -  °F | °C
As of 7:39 AM on Friday 24 Oct 2014 (Local Time) from KBGM Reporting Station
Overcast Overcast  
Wind Chill: 41°   Ceiling: 1100
Heat Index: 46°   Visibility: 10mi
Dew Point: 42°   Wind: 10mph
Humidity: 86%   Direction: 320°NW
Pressure: 29.9"   Gusts: 20mph
Location:  42.4°N, 75.17°W
Report Text: KBGM 241139Z 32009G17KT 10SM SCT008 BKN011 OVC060 08/06 A2990 RMK AO2 T00780056
Loading
Personal Weather Stations






























Interactive Weather Map
Tropical Storm Tracking
New forecast layout! Learn more

10-Day Weather Forecast

Advertisements
Track Severe Weather on mobile